sensor_id;sensor_type;location;lat;lon;timestamp;temperature;humidity
47482;DHT22;33219;47.410;9.730;2022-11-03T00:00:56;7.30;99.90
47482;DHT22;33219;47.410;9.730;2022-11-03T00:03:23;7.30;99.90
47482;DHT22;33219;47.410;9.730;2022-11-03T00:05:51;7.30;99.90
47482;DHT22;33219;47.410;9.730;2022-11-03T00:08:33;7.30;99.90
47482;DHT22;33219;47.410;9.730;2022-11-03T00:11:06;7.30;99.90
47482;DHT22;33219;47.410;9.730;2022-11-03T00:13:35;7.30;99.90
47482;DHT22;33219;47.410;9.730;2022-11-03T00:16:04;7.20;99.90
47482;DHT22;33219;47.410;9.730;2022-11-03T00:18:32;7.20;99.90
47482;DHT22;33219;47.410;9.730;2022-11-03T00:21:05;7.10;99.90
47482;DHT22;33219;47.410;9.730;2022-11-03T00:23:35;7.10;99.90
47482;DHT22;33219;47.410;9.730;2022-11-03T00:26:16;7.10;99.90
47482;DHT22;33219;47.410;9.730;2022-11-03T00:28:44;7.00;99.90
47482;DHT22;33219;47.410;9.730;2022-11-03T00:31:20;6.90;99.90
47482;DHT22;33219;47.410;9.730;2022-11-03T00:33:48;6.90;99.90
47482;DHT22;33219;47.410;9.730;2022-11-03T00:36:22;6.80;99.90
47482;DHT22;33219;47.410;9.730;2022-11-03T00:38:46;6.80;99.90
47482;DHT22;33219;47.410;9.730;2022-11-03T00:41:14;6.80;99.90
47482;DHT22;33219;47.410;9.730;2022-11-03T00:43:42;6.80;99.90
47482;DHT22;33219;47.410;9.730;2022-11-03T00:46:10;6.70;99.90
47482;DHT22;33219;47.410;9.730;2022-11-03T00:48:38;6.70;99.90
47482;DHT22;33219;47.410;9.730;2022-11-03T00:56:09;6.50;99.90
47482;DHT22;33219;47.410;9.730;2022-11-03T00:58:37;6.50;99.90
47482;DHT22;33219;47.410;9.730;2022-11-03T01:01:06;6.50;99.90
47482;DHT22;33219;47.410;9.730;2022-11-03T01:03:35;6.50;99.90
47482;DHT22;33219;47.410;9.730;2022-11-03T01:06:10;6.50;99.90
47482;DHT22;33219;47.410;9.730;2022-11-03T01:08:55;6.50;99.90
47482;DHT22;33219;47.410;9.730;2022-11-03T01:11:24;6.50;99.90
47482;DHT22;33219;47.410;9.730;2022-11-03T01:14:12;6.50;99.90
47482;DHT22;33219;47.410;9.730;2022-11-03T01:16:40;6.40;99.90
47482;DHT22;33219;47.410;9.730;2022-11-03T01:19:08;6.40;99.90
47482;DHT22;33219;47.410;9.730;2022-11-03T01:21:36;6.40;99.90
47482;DHT22;33219;47.410;9.730;2022-11-03T01:24:04;6.40;99.90
47482;DHT22;33219;47.410;9.730;2022-11-03T01:26:31;6.40;99.90
47482;DHT22;33219;47.410;9.730;2022-11-03T01:28:59;6.40;99.90
47482;DHT22;33219;47.410;9.730;2022-11-03T01:31:27;6.40;99.90
47482;DHT22;33219;47.410;9.730;2022-11-03T01:33:56;6.40;99.90
47482;DHT22;33219;47.410;9.730;2022-11-03T01:36:24;6.40;99.90
47482;DHT22;33219;47.410;9.730;2022-11-03T01:38:53;6.40;99.90
47482;DHT22;33219;47.410;9.730;2022-11-03T01:41:24;6.40;99.90
47482;DHT22;33219;47.410;9.730;2022-11-03T01:44:36;6.40;99.90
47482;DHT22;33219;47.410;9.730;2022-11-03T01:46:26;6.40;99.90
47482;DHT22;33219;47.410;9.730;2022-11-03T01:51:33;6.40;99.90
47482;DHT22;33219;47.410;9.730;2022-11-03T01:54:03;6.40;99.90
47482;DHT22;33219;47.410;9.730;2022-11-03T01:56:34;6.40;99.90
47482;DHT22;33219;47.410;9.730;2022-11-03T01:59:02;6.40;99.90
47482;DHT22;33219;47.410;9.730;2022-11-03T02:01:31;6.30;99.90
47482;DHT22;33219;47.410;9.730;2022-11-03T02:04:04;6.30;99.90
47482;DHT22;33219;47.410;9.730;2022-11-03T02:06:32;6.20;99.90
47482;DHT22;33219;47.410;9.730;2022-11-03T02:09:08;6.10;99.90
47482;DHT22;33219;47.410;9.730;2022-11-03T02:11:38;6.10;99.90
47482;DHT22;33219;47.410;9.730;2022-11-03T02:14:23;6.10;99.90
47482;DHT22;33219;47.410;9.730;2022-11-03T02:16:53;6.00;99.90
47482;DHT22;33219;47.410;9.730;2022-11-03T02:25:01;6.00;99.90
47482;DHT22;33219;47.410;9.730;2022-11-03T02:27:26;6.00;99.90
47482;DHT22;33219;47.410;9.730;2022-11-03T02:29:54;6.00;99.90
47482;DHT22;33219;47.410;9.730;2022-11-03T02:32:25;6.00;99.90
47482;DHT22;33219;47.410;9.730;2022-11-03T02:37:46;6.20;99.90
47482;DHT22;33219;47.410;9.730;2022-11-03T02:40:31;6.20;99.90
47482;DHT22;33219;47.410;9.730;2022-11-03T02:42:58;6.20;99.90
47482;DHT22;33219;47.410;9.730;2022-11-03T02:45:27;6.20;99.90
47482;DHT22;33219;47.410;9.730;2022-11-03T02:47:57;6.10;99.90
47482;DHT22;33219;47.410;9.730;2022-11-03T02:50:30;6.10;99.90
47482;DHT22;33219;47.410;9.730;2022-11-03T02:52:58;6.00;99.90
47482;DHT22;33219;47.410;9.730;2022-11-03T03:01:00;6.10;99.90
47482;DHT22;33219;47.410;9.730;2022-11-03T03:03:36;6.00;99.90
47482;DHT22;33219;47.410;9.730;2022-11-03T03:06:11;6.10;99.90
47482;DHT22;33219;47.410;9.730;2022-11-03T03:08:37;6.10;99.90
47482;DHT22;33219;47.410;9.730;2022-11-03T03:11:05;6.10;99.90
47482;DHT22;33219;47.410;9.730;2022-11-03T03:13:34;6.00;99.90
47482;DHT22;33219;47.410;9.730;2022-11-03T03:16:25;6.00;99.90
47482;DHT22;33219;47.410;9.730;2022-11-03T03:19:08;6.00;99.90
47482;DHT22;33219;47.410;9.730;2022-11-03T03:21:36;5.90;99.90
47482;DHT22;33219;47.410;9.730;2022-11-03T03:24:06;6.00;99.90
47482;DHT22;33219;47.410;9.730;2022-11-03T03:26:45;5.90;99.90
47482;DHT22;33219;47.410;9.730;2022-11-03T03:29:30;5.90;99.90
47482;DHT22;33219;47.410;9.730;2022-11-03T03:31:55;5.70;99.90
47482;DHT22;33219;47.410;9.730;2022-11-03T03:34:25;5.70;99.90
47482;DHT22;33219;47.410;9.730;2022-11-03T03:36:55;5.60;99.90
47482;DHT22;33219;47.410;9.730;2022-11-03T03:39:27;5.50;99.90
47482;DHT22;33219;47.410;9.730;2022-11-03T03:41:56;5.50;99.90
47482;DHT22;33219;47.410;9.730;2022-11-03T03:44:24;5.50;99.90
47482;DHT22;33219;47.410;9.730;2022-11-03T03:46:59;5.50;99.90
47482;DHT22;33219;47.410;9.730;2022-11-03T03:49:27;5.40;99.90
47482;DHT22;33219;47.410;9.730;2022-11-03T03:51:54;5.50;99.90
47482;DHT22;33219;47.410;9.730;2022-11-03T03:54:22;5.50;99.90
47482;DHT22;33219;47.410;9.730;2022-11-03T03:57:01;5.60;99.90
47482;DHT22;33219;47.410;9.730;2022-11-03T03:59:20;5.60;99.90
47482;DHT22;33219;47.410;9.730;2022-11-03T04:01:48;5.50;99.90
47482;DHT22;33219;47.410;9.730;2022-11-03T04:04:16;5.40;99.90
47482;DHT22;33219;47.410;9.730;2022-11-03T04:06:43;5.40;99.90
47482;DHT22;33219;47.410;9.730;2022-11-03T04:09:11;5.40;99.90
47482;DHT22;33219;47.410;9.730;2022-11-03T04:11:38;5.40;99.90
47482;DHT22;33219;47.410;9.730;2022-11-03T04:14:24;5.50;99.90
47482;DHT22;33219;47.410;9.730;2022-11-03T04:17:15;5.50;99.90
47482;DHT22;33219;47.410;9.730;2022-11-03T04:20:00;5.60;99.90
47482;DHT22;33219;47.410;9.730;2022-11-03T04:22:48;5.70;99.90
47482;DHT22;33219;47.410;9.730;2022-11-03T04:25:16;5.70;99.90
47482;DHT22;33219;47.410;9.730;2022-11-03T04:27:44;5.70;99.90
47482;DHT22;33219;47.410;9.730;2022-11-03T04:32:47;5.70;99.90
47482;DHT22;33219;47.410;9.730;2022-11-03T04:35:25;5.70;99.90
47482;DHT22;33219;47.410;9.730;2022-11-03T04:38:02;5.70;99.90
47482;DHT22;33219;47.410;9.730;2022-11-03T04:40:30;5.80;99.90
47482;DHT22;33219;47.410;9.730;2022-11-03T04:42:58;5.70;99.90
47482;DHT22;33219;47.410;9.730;2022-11-03T04:45:30;5.70;99.90
47482;DHT22;33219;47.410;9.730;2022-11-03T04:48:05;5.60;99.90
47482;DHT22;33219;47.410;9.730;2022-11-03T04:50:31;5.70;99.90
47482;DHT22;33219;47.410;9.730;2022-11-03T04:52:59;5.70;99.90
47482;DHT22;33219;47.410;9.730;2022-11-03T04:55:26;5.70;99.90
47482;DHT22;33219;47.410;9.730;2022-11-03T04:57:56;5.70;99.90
47482;DHT22;33219;47.410;9.730;2022-11-03T05:00:24;5.70;99.90
47482;DHT22;33219;47.410;9.730;2022-11-03T05:02:52;5.70;99.90
47482;DHT22;33219;47.410;9.730;2022-11-03T05:05:22;5.70;99.90
47482;DHT22;33219;47.410;9.730;2022-11-03T05:07:53;5.80;99.90
47482;DHT22;33219;47.410;9.730;2022-11-03T05:10:26;5.70;99.90
47482;DHT22;33219;47.410;9.730;2022-11-03T05:12:55;5.60;99.90
47482;DHT22;33219;47.410;9.730;2022-11-03T05:15:34;5.60;99.90
47482;DHT22;33219;47.410;9.730;2022-11-03T05:18:10;5.50;99.90
47482;DHT22;33219;47.410;9.730;2022-11-03T05:20:35;5.50;99.90
47482;DHT22;33219;47.410;9.730;2022-11-03T05:23:04;5.50;99.90
47482;DHT22;33219;47.410;9.730;2022-11-03T05:25:37;5.40;99.90
47482;DHT22;33219;47.410;9.730;2022-11-03T05:30:43;5.20;99.90
47482;DHT22;33219;47.410;9.730;2022-11-03T05:33:25;5.10;99.90
47482;DHT22;33219;47.410;9.730;2022-11-03T05:35:54;5.00;99.90
47482;DHT22;33219;47.410;9.730;2022-11-03T05:38:22;5.00;99.90
47482;DHT22;33219;47.410;9.730;2022-11-03T05:40:51;5.00;99.90
47482;DHT22;33219;47.410;9.730;2022-11-03T05:43:19;5.00;99.90
47482;DHT22;33219;47.410;9.730;2022-11-03T05:45:49;5.00;99.90
47482;DHT22;33219;47.410;9.730;2022-11-03T05:48:24;5.00;99.90
47482;DHT22;33219;47.410;9.730;2022-11-03T05:50:50;5.00;99.90
47482;DHT22;33219;47.410;9.730;2022-11-03T05:53:31;5.00;99.90
47482;DHT22;33219;47.410;9.730;2022-11-03T05:56:02;5.00;99.90
47482;DHT22;33219;47.410;9.730;2022-11-03T05:58:36;5.00;99.90
47482;DHT22;33219;47.410;9.730;2022-11-03T06:01:15;5.00;99.90
47482;DHT22;33219;47.410;9.730;2022-11-03T06:03:43;5.10;99.90
47482;DHT22;33219;47.410;9.730;2022-11-03T06:06:28;5.10;99.90
47482;DHT22;33219;47.410;9.730;2022-11-03T06:08:54;5.20;99.90
47482;DHT22;33219;47.410;9.730;2022-11-03T06:11:29;5.10;99.90
47482;DHT22;33219;47.410;9.730;2022-11-03T06:13:55;5.10;99.90
47482;DHT22;33219;47.410;9.730;2022-11-03T06:16:31;5.10;99.90
47482;DHT22;33219;47.410;9.730;2022-11-03T06:18:54;5.10;99.90
47482;DHT22;33219;47.410;9.730;2022-11-03T06:21:23;5.10;99.90
47482;DHT22;33219;47.410;9.730;2022-11-03T06:23:53;5.10;99.90
47482;DHT22;33219;47.410;9.730;2022-11-03T06:26:28;5.10;99.90
47482;DHT22;33219;47.410;9.730;2022-11-03T06:28:56;5.20;99.90
47482;DHT22;33219;47.410;9.730;2022-11-03T06:31:29;5.20;99.90
47482;DHT22;33219;47.410;9.730;2022-11-03T06:34:42;5.20;99.90
47482;DHT22;33219;47.410;9.730;2022-11-03T06:43:53;5.30;99.90
47482;DHT22;33219;47.410;9.730;2022-11-03T06:49:20;5.40;99.90
47482;DHT22;33219;47.410;9.730;2022-11-03T06:52:47;5.50;99.90
47482;DHT22;33219;47.410;9.730;2022-11-03T07:04:55;5.50;99.90
47482;DHT22;33219;47.410;9.730;2022-11-03T07:07:41;5.60;99.90
47482;DHT22;33219;47.410;9.730;2022-11-03T07:19:23;6.50;99.90
47482;DHT22;33219;47.410;9.730;2022-11-03T07:25:04;6.70;99.90
47482;DHT22;33219;47.410;9.730;2022-11-03T08:06:56;8.50;99.90
47482;DHT22;33219;47.410;9.730;2022-11-03T08:38:50;10.20;99.90
47482;DHT22;33219;47.410;9.730;2022-11-03T09:20:10;10.10;99.90
47482;DHT22;33219;47.410;9.730;2022-11-03T09:22:43;10.20;99.90
47482;DHT22;33219;47.410;9.730;2022-11-03T09:25:13;10.40;99.90
47482;DHT22;33219;47.410;9.730;2022-11-03T09:27:43;10.40;99.90
47482;DHT22;33219;47.410;9.730;2022-11-03T09:30:23;10.30;99.90
47482;DHT22;33219;47.410;9.730;2022-11-03T09:33:01;10.40;99.90
47482;DHT22;33219;47.410;9.730;2022-11-03T09:35:38;10.60;99.90
47482;DHT22;33219;47.410;9.730;2022-11-03T09:38:11;10.80;99.90
47482;DHT22;33219;47.410;9.730;2022-11-03T09:40:43;11.00;99.90
47482;DHT22;33219;47.410;9.730;2022-11-03T09:43:13;11.00;99.90
47482;DHT22;33219;47.410;9.730;2022-11-03T09:45:49;11.10;99.90
47482;DHT22;33219;47.410;9.730;2022-11-03T09:48:22;11.20;99.90
47482;DHT22;33219;47.410;9.730;2022-11-03T09:53:24;11.00;99.90
47482;DHT22;33219;47.410;9.730;2022-11-03T09:55:53;10.90;99.90
47482;DHT22;33219;47.410;9.730;2022-11-03T09:58:25;10.90;99.90
47482;DHT22;33219;47.410;9.730;2022-11-03T10:01:00;10.80;99.90
47482;DHT22;33219;47.410;9.730;2022-11-03T10:03:31;10.90;99.90
47482;DHT22;33219;47.410;9.730;2022-11-03T10:08:44;10.80;99.90
47482;DHT22;33219;47.410;9.730;2022-11-03T10:11:20;10.90;99.90
47482;DHT22;33219;47.410;9.730;2022-11-03T10:13:59;10.80;99.90
47482;DHT22;33219;47.410;9.730;2022-11-03T10:16:42;10.80;99.90
47482;DHT22;33219;47.410;9.730;2022-11-03T10:19:32;10.90;99.90
47482;DHT22;33219;47.410;9.730;2022-11-03T10:22:03;10.90;99.90
47482;DHT22;33219;47.410;9.730;2022-11-03T10:24:41;10.90;99.90
47482;DHT22;33219;47.410;9.730;2022-11-03T10:32:54;11.10;99.90
47482;DHT22;33219;47.410;9.730;2022-11-03T10:35:43;11.20;99.90
47482;DHT22;33219;47.410;9.730;2022-11-03T10:38:33;11.10;99.90
47482;DHT22;33219;47.410;9.730;2022-11-03T10:41:19;11.30;99.90
47482;DHT22;33219;47.410;9.730;2022-11-03T10:47:09;11.00;99.90
47482;DHT22;33219;47.410;9.730;2022-11-03T10:49:43;10.90;99.90
47482;DHT22;33219;47.410;9.730;2022-11-03T11:01:09;11.10;99.90
47482;DHT22;33219;47.410;9.730;2022-11-03T11:09:44;10.90;99.90
47482;DHT22;33219;47.410;9.730;2022-11-03T11:12:28;10.90;99.90
47482;DHT22;33219;47.410;9.730;2022-11-03T11:15:02;10.80;99.90
47482;DHT22;33219;47.410;9.730;2022-11-03T11:17:52;10.80;99.90
47482;DHT22;33219;47.410;9.730;2022-11-03T11:20:50;11.00;99.90
47482;DHT22;33219;47.410;9.730;2022-11-03T11:23:45;10.90;99.90
47482;DHT22;33219;47.410;9.730;2022-11-03T11:39:06;11.40;99.90
47482;DHT22;33219;47.410;9.730;2022-11-03T11:45:02;11.70;99.90
47482;DHT22;33219;47.410;9.730;2022-11-03T11:47:46;11.70;99.90
47482;DHT22;33219;47.410;9.730;2022-11-03T11:53:12;11.90;99.90
47482;DHT22;33219;47.410;9.730;2022-11-03T11:55:52;12.10;99.90
47482;DHT22;33219;47.410;9.730;2022-11-03T11:58:36;12.00;99.90
47482;DHT22;33219;47.410;9.730;2022-11-03T12:01:05;12.10;99.90
47482;DHT22;33219;47.410;9.730;2022-11-03T12:03:45;12.30;99.90
47482;DHT22;33219;47.410;9.730;2022-11-03T12:06:30;12.30;99.90
47482;DHT22;33219;47.410;9.730;2022-11-03T12:09:14;12.20;99.90
47482;DHT22;33219;47.410;9.730;2022-11-03T12:11:54;12.40;99.90
47482;DHT22;33219;47.410;9.730;2022-11-03T12:14:38;12.50;99.90
47482;DHT22;33219;47.410;9.730;2022-11-03T12:17:31;12.40;99.90
47482;DHT22;33219;47.410;9.730;2022-11-03T12:20:45;12.20;99.90
47482;DHT22;33219;47.410;9.730;2022-11-03T12:29:33;12.30;99.90
47482;DHT22;33219;47.410;9.730;2022-11-03T12:32:40;12.50;99.90
47482;DHT22;33219;47.410;9.730;2022-11-03T12:35:12;12.80;99.90
47482;DHT22;33219;47.410;9.730;2022-11-03T12:38:11;12.80;99.90
47482;DHT22;33219;47.410;9.730;2022-11-03T12:40:58;12.80;99.90
47482;DHT22;33219;47.410;9.730;2022-11-03T12:43:50;12.60;99.90
47482;DHT22;33219;47.410;9.730;2022-11-03T12:46:26;12.50;99.90
47482;DHT22;33219;47.410;9.730;2022-11-03T12:48:55;12.50;99.90
47482;DHT22;33219;47.410;9.730;2022-11-03T12:51:53;12.60;99.90
47482;DHT22;33219;47.410;9.730;2022-11-03T12:54:30;12.70;99.90
47482;DHT22;33219;47.410;9.730;2022-11-03T12:57:03;12.80;99.90
47482;DHT22;33219;47.410;9.730;2022-11-03T12:59:43;12.80;99.90
47482;DHT22;33219;47.410;9.730;2022-11-03T13:02:21;12.90;99.90
47482;DHT22;33219;47.410;9.730;2022-11-03T13:04:51;12.80;99.90
47482;DHT22;33219;47.410;9.730;2022-11-03T13:07:32;12.70;99.90
47482;DHT22;33219;47.410;9.730;2022-11-03T13:10:03;12.60;99.90
47482;DHT22;33219;47.410;9.730;2022-11-03T13:12:40;12.50;99.90
47482;DHT22;33219;47.410;9.730;2022-11-03T13:15:12;12.40;99.90
47482;DHT22;33219;47.410;9.730;2022-11-03T13:17:42;12.40;99.90
47482;DHT22;33219;47.410;9.730;2022-11-03T13:20:13;12.40;99.90
47482;DHT22;33219;47.410;9.730;2022-11-03T13:25:37;12.40;99.90
47482;DHT22;33219;47.410;9.730;2022-11-03T13:28:10;12.40;99.90
47482;DHT22;33219;47.410;9.730;2022-11-03T13:30:42;12.40;99.90
47482;DHT22;33219;47.410;9.730;2022-11-03T13:33:25;12.50;99.90
47482;DHT22;33219;47.410;9.730;2022-11-03T13:35:53;12.50;99.90
47482;DHT22;33219;47.410;9.730;2022-11-03T13:38:22;12.60;99.90
47482;DHT22;33219;47.410;9.730;2022-11-03T13:40:52;12.60;99.90
47482;DHT22;33219;47.410;9.730;2022-11-03T13:43:25;12.60;99.90
47482;DHT22;33219;47.410;9.730;2022-11-03T13:46:00;12.50;99.90
47482;DHT22;33219;47.410;9.730;2022-11-03T13:48:34;12.30;99.90
47482;DHT22;33219;47.410;9.730;2022-11-03T13:51:06;12.20;99.90
47482;DHT22;33219;47.410;9.730;2022-11-03T13:53:38;12.10;99.90
47482;DHT22;33219;47.410;9.730;2022-11-03T13:56:11;11.90;99.90
47482;DHT22;33219;47.410;9.730;2022-11-03T13:58:46;11.80;99.90
47482;DHT22;33219;47.410;9.730;2022-11-03T14:01:16;11.90;99.90
47482;DHT22;33219;47.410;9.730;2022-11-03T14:03:56;11.70;99.90
47482;DHT22;33219;47.410;9.730;2022-11-03T14:06:33;11.60;99.90
47482;DHT22;33219;47.410;9.730;2022-11-03T14:09:09;11.40;99.90
47482;DHT22;33219;47.410;9.730;2022-11-03T14:11:42;11.30;99.90
47482;DHT22;33219;47.410;9.730;2022-11-03T14:14:37;11.20;99.90
47482;DHT22;33219;47.410;9.730;2022-11-03T14:17:10;11.10;99.90
47482;DHT22;33219;47.410;9.730;2022-11-03T14:19:40;11.10;99.90
47482;DHT22;33219;47.410;9.730;2022-11-03T14:22:15;11.10;99.90
47482;DHT22;33219;47.410;9.730;2022-11-03T14:24:45;11.10;99.90
47482;DHT22;33219;47.410;9.730;2022-11-03T14:27:13;11.00;99.90
47482;DHT22;33219;47.410;9.730;2022-11-03T14:29:42;11.10;99.90
47482;DHT22;33219;47.410;9.730;2022-11-03T14:32:10;11.10;99.90
47482;DHT22;33219;47.410;9.730;2022-11-03T14:34:38;11.10;99.90
47482;DHT22;33219;47.410;9.730;2022-11-03T14:37:05;11.00;99.90
47482;DHT22;33219;47.410;9.730;2022-11-03T14:39:34;11.00;99.90
47482;DHT22;33219;47.410;9.730;2022-11-03T14:42:03;11.00;99.90
47482;DHT22;33219;47.410;9.730;2022-11-03T14:44:35;11.00;99.90
47482;DHT22;33219;47.410;9.730;2022-11-03T14:47:05;11.00;99.90
47482;DHT22;33219;47.410;9.730;2022-11-03T14:49:34;10.90;99.90
47482;DHT22;33219;47.410;9.730;2022-11-03T14:52:03;10.80;99.90
47482;DHT22;33219;47.410;9.730;2022-11-03T14:54:31;10.80;99.90
47482;DHT22;33219;47.410;9.730;2022-11-03T14:56:59;10.80;99.90
47482;DHT22;33219;47.410;9.730;2022-11-03T14:59:27;10.80;99.90
47482;DHT22;33219;47.410;9.730;2022-11-03T15:01:56;10.70;99.90
47482;DHT22;33219;47.410;9.730;2022-11-03T15:04:24;10.70;99.90
47482;DHT22;33219;47.410;9.730;2022-11-03T15:06:52;10.70;99.90
47482;DHT22;33219;47.410;9.730;2022-11-03T15:09:20;10.70;99.90
47482;DHT22;33219;47.410;9.730;2022-11-03T15:11:47;10.70;99.90
47482;DHT22;33219;47.410;9.730;2022-11-03T15:14:15;10.70;99.90
47482;DHT22;33219;47.410;9.730;2022-11-03T15:16:43;10.70;99.90
47482;DHT22;33219;47.410;9.730;2022-11-03T15:19:11;10.70;99.90
47482;DHT22;33219;47.410;9.730;2022-11-03T15:21:39;10.80;99.90
47482;DHT22;33219;47.410;9.730;2022-11-03T15:24:07;10.80;99.90
47482;DHT22;33219;47.410;9.730;2022-11-03T15:26:34;10.80;99.90
47482;DHT22;33219;47.410;9.730;2022-11-03T15:29:02;10.90;99.90
47482;DHT22;33219;47.410;9.730;2022-11-03T15:31:30;10.90;99.90
47482;DHT22;33219;47.410;9.730;2022-11-03T15:33:58;10.90;99.90
47482;DHT22;33219;47.410;9.730;2022-11-03T15:36:25;10.90;99.90
47482;DHT22;33219;47.410;9.730;2022-11-03T15:38:53;11.00;99.90
47482;DHT22;33219;47.410;9.730;2022-11-03T15:41:20;11.00;99.90
47482;DHT22;33219;47.410;9.730;2022-11-03T15:43:49;11.10;99.90
47482;DHT22;33219;47.410;9.730;2022-11-03T15:46:17;11.10;99.90
47482;DHT22;33219;47.410;9.730;2022-11-03T15:48:45;11.00;99.90
47482;DHT22;33219;47.410;9.730;2022-11-03T15:51:14;11.10;99.90
47482;DHT22;33219;47.410;9.730;2022-11-03T15:53:42;11.10;99.90
47482;DHT22;33219;47.410;9.730;2022-11-03T15:56:11;11.00;99.90
47482;DHT22;33219;47.410;9.730;2022-11-03T15:58:38;11.00;99.90
47482;DHT22;33219;47.410;9.730;2022-11-03T16:01:06;11.00;99.90
47482;DHT22;33219;47.410;9.730;2022-11-03T16:03:33;11.00;99.90
47482;DHT22;33219;47.410;9.730;2022-11-03T16:06:01;10.90;99.90
47482;DHT22;33219;47.410;9.730;2022-11-03T16:08:29;10.90;99.90
47482;DHT22;33219;47.410;9.730;2022-11-03T16:10:56;10.80;99.90
47482;DHT22;33219;47.410;9.730;2022-11-03T16:13:24;10.70;99.90
47482;DHT22;33219;47.410;9.730;2022-11-03T16:15:52;10.70;99.90
47482;DHT22;33219;47.410;9.730;2022-11-03T16:18:22;10.60;99.90
47482;DHT22;33219;47.410;9.730;2022-11-03T16:20:50;10.60;99.90
47482;DHT22;33219;47.410;9.730;2022-11-03T16:23:18;10.50;99.90
47482;DHT22;33219;47.410;9.730;2022-11-03T16:25:48;10.50;99.90
47482;DHT22;33219;47.410;9.730;2022-11-03T16:28:16;10.50;99.90
47482;DHT22;33219;47.410;9.730;2022-11-03T16:30:44;10.40;99.90
47482;DHT22;33219;47.410;9.730;2022-11-03T16:33:12;10.40;99.90
47482;DHT22;33219;47.410;9.730;2022-11-03T16:35:40;10.40;99.90
47482;DHT22;33219;47.410;9.730;2022-11-03T16:38:07;10.40;99.90
47482;DHT22;33219;47.410;9.730;2022-11-03T16:40:35;10.40;99.90
47482;DHT22;33219;47.410;9.730;2022-11-03T16:43:03;10.40;99.90
47482;DHT22;33219;47.410;9.730;2022-11-03T16:45:31;10.40;99.90
47482;DHT22;33219;47.410;9.730;2022-11-03T16:47:58;10.40;99.90
47482;DHT22;33219;47.410;9.730;2022-11-03T16:50:26;10.40;99.90
47482;DHT22;33219;47.410;9.730;2022-11-03T16:52:54;10.30;99.90
47482;DHT22;33219;47.410;9.730;2022-11-03T16:55:22;10.40;99.90
47482;DHT22;33219;47.410;9.730;2022-11-03T16:57:50;10.30;99.90
47482;DHT22;33219;47.410;9.730;2022-11-03T17:00:18;10.20;99.90
47482;DHT22;33219;47.410;9.730;2022-11-03T17:02:46;10.30;99.90
47482;DHT22;33219;47.410;9.730;2022-11-03T17:05:15;10.30;99.90
47482;DHT22;33219;47.410;9.730;2022-11-03T17:07:44;10.30;99.90
47482;DHT22;33219;47.410;9.730;2022-11-03T17:10:12;10.30;99.90
47482;DHT22;33219;47.410;9.730;2022-11-03T17:12:40;10.30;99.90
47482;DHT22;33219;47.410;9.730;2022-11-03T17:15:08;10.20;99.90
47482;DHT22;33219;47.410;9.730;2022-11-03T17:17:36;10.20;99.90
47482;DHT22;33219;47.410;9.730;2022-11-03T17:20:04;10.20;99.90
47482;DHT22;33219;47.410;9.730;2022-11-03T17:22:32;10.20;99.90
47482;DHT22;33219;47.410;9.730;2022-11-03T17:25:00;10.20;99.90
47482;DHT22;33219;47.410;9.730;2022-11-03T17:27:42;10.20;99.90
47482;DHT22;33219;47.410;9.730;2022-11-03T17:30:14;10.10;99.90
47482;DHT22;33219;47.410;9.730;2022-11-03T17:32:42;10.20;99.90
47482;DHT22;33219;47.410;9.730;2022-11-03T17:37:57;10.10;99.90
47482;DHT22;33219;47.410;9.730;2022-11-03T17:40:25;10.20;99.90
47482;DHT22;33219;47.410;9.730;2022-11-03T17:42:53;10.10;99.90
47482;DHT22;33219;47.410;9.730;2022-11-03T17:45:22;10.10;99.90
47482;DHT22;33219;47.410;9.730;2022-11-03T17:47:50;10.10;99.90
47482;DHT22;33219;47.410;9.730;2022-11-03T17:50:20;10.20;99.90
47482;DHT22;33219;47.410;9.730;2022-11-03T17:52:49;10.20;99.90
47482;DHT22;33219;47.410;9.730;2022-11-03T17:55:20;10.30;99.90
47482;DHT22;33219;47.410;9.730;2022-11-03T17:57:48;10.20;99.90
47482;DHT22;33219;47.410;9.730;2022-11-03T18:00:18;10.20;99.90
47482;DHT22;33219;47.410;9.730;2022-11-03T18:02:49;10.20;99.90
47482;DHT22;33219;47.410;9.730;2022-11-03T18:05:23;10.20;99.90
47482;DHT22;33219;47.410;9.730;2022-11-03T18:07:53;10.30;99.90
47482;DHT22;33219;47.410;9.730;2022-11-03T18:10:37;10.30;99.90
47482;DHT22;33219;47.410;9.730;2022-11-03T18:13:15;10.20;99.90
47482;DHT22;33219;47.410;9.730;2022-11-03T18:15:48;10.20;99.90
47482;DHT22;33219;47.410;9.730;2022-11-03T18:18:24;10.30;99.90
47482;DHT22;33219;47.410;9.730;2022-11-03T18:20:53;10.30;99.90
47482;DHT22;33219;47.410;9.730;2022-11-03T18:23:29;10.20;99.90
47482;DHT22;33219;47.410;9.730;2022-11-03T18:25:55;10.30;99.90
47482;DHT22;33219;47.410;9.730;2022-11-03T18:28:23;10.20;99.90
47482;DHT22;33219;47.410;9.730;2022-11-03T18:30:53;10.20;99.90
47482;DHT22;33219;47.410;9.730;2022-11-03T18:33:33;10.20;99.90
47482;DHT22;33219;47.410;9.730;2022-11-03T18:36:05;10.20;99.90
47482;DHT22;33219;47.410;9.730;2022-11-03T18:38:33;10.20;99.90
47482;DHT22;33219;47.410;9.730;2022-11-03T18:41:02;10.10;99.90
47482;DHT22;33219;47.410;9.730;2022-11-03T18:43:31;10.20;99.90
47482;DHT22;33219;47.410;9.730;2022-11-03T18:46:00;10.10;99.90
47482;DHT22;33219;47.410;9.730;2022-11-03T18:48:28;10.10;99.90
47482;DHT22;33219;47.410;9.730;2022-11-03T18:50:56;10.10;99.90
47482;DHT22;33219;47.410;9.730;2022-11-03T18:53:25;10.10;99.90
47482;DHT22;33219;47.410;9.730;2022-11-03T18:55:55;10.00;99.90
47482;DHT22;33219;47.410;9.730;2022-11-03T18:58:23;10.10;99.90
47482;DHT22;33219;47.410;9.730;2022-11-03T19:00:52;10.10;99.90
47482;DHT22;33219;47.410;9.730;2022-11-03T19:03:22;10.00;99.90
47482;DHT22;33219;47.410;9.730;2022-11-03T19:05:51;10.00;99.90
47482;DHT22;33219;47.410;9.730;2022-11-03T19:08:24;10.00;99.90
47482;DHT22;33219;47.410;9.730;2022-11-03T19:10:50;10.10;99.90
47482;DHT22;33219;47.410;9.730;2022-11-03T19:13:31;10.10;99.90
47482;DHT22;33219;47.410;9.730;2022-11-03T19:16:01;10.20;99.90
47482;DHT22;33219;47.410;9.730;2022-11-03T19:18:32;10.20;99.90
47482;DHT22;33219;47.410;9.730;2022-11-03T19:21:01;10.20;99.90
47482;DHT22;33219;47.410;9.730;2022-11-03T19:23:29;10.20;99.90
47482;DHT22;33219;47.410;9.730;2022-11-03T19:25:57;10.30;99.90
47482;DHT22;33219;47.410;9.730;2022-11-03T19:28:27;10.30;99.90
47482;DHT22;33219;47.410;9.730;2022-11-03T19:30:59;10.30;99.90
47482;DHT22;33219;47.410;9.730;2022-11-03T19:33:28;10.30;99.90
47482;DHT22;33219;47.410;9.730;2022-11-03T19:35:57;10.40;99.90
47482;DHT22;33219;47.410;9.730;2022-11-03T19:38:25;10.30;99.90
47482;DHT22;33219;47.410;9.730;2022-11-03T19:40:53;10.30;99.90
47482;DHT22;33219;47.410;9.730;2022-11-03T19:43:38;10.30;99.90
47482;DHT22;33219;47.410;9.730;2022-11-03T19:46:08;10.30;99.90
47482;DHT22;33219;47.410;9.730;2022-11-03T19:48:37;10.30;99.90
47482;DHT22;33219;47.410;9.730;2022-11-03T19:51:05;10.30;99.90
47482;DHT22;33219;47.410;9.730;2022-11-03T19:53:33;10.30;99.90
47482;DHT22;33219;47.410;9.730;2022-11-03T19:56:03;10.30;99.90